Hai Yang Shi You 708 — BFDL — position and weather

sailwx.info

Track history (hours):
 
Tides and Currents Weather Stations Pressure Air Temp Water Temp Dewpoint Dewpoint Depression Visibility Wind Speed Wind Dir Waves Ship Positions

Hai Yang Shi You 708

Last reported at 2016-Aug-04 10:33 UTC. Time now 2016-Aug-30 10:52 UTC.
Position N 24°26' E 118°53'.
Warning: this ship's position is 26 days out of date.

Length 105 m; draft 7.3 m.

Type: Other ship. MMSI: 413303010.

Date/timePositionNaut miles runAvg speedWind from/ knotsBaromVisibWave heightAir tempDewpointWater temp
2016-Aug-04 10:33N 24°26' E 118°53'9 9.3
2016-Aug-04 09:33N 24°32' E 119°01'13 9.5
2016-Aug-04 08:12N 24°41' E 119°11'6 9.8
2016-Aug-04 07:33N 24°46' E 119°16'10 9.5
2016-Aug-04 06:33N 24°51' E 119°24'34510.1
2016-Aug-02 20:27N 29°52' E 122°34'1112.1
2016-Aug-02 19:33N 30°03' E 122°37'3510.9
2016-Aug-02 16:19N 30°38' E 122°38'9 9.1
2016-Aug-02 15:21N 30°47' E 122°34'59 8.7
2016-Aug-02 08:33N 31°21' E 121°38'1211.9
2016-Aug-02 07:33N 31°28' E 121°27'1111.1
2016-Aug-02 06:34N 31°36' E 121°17'15 7.2
2016-Aug-02 04:27N 31°44' E 121°03'0 0.0
2016-Aug-01 09:27N 31°44' E 121°03'0 0.0
2016-Aug-01 04:33N 31°44' E 121°03'0 0.0
2016-Jul-31 11:27N 31°44' E 121°03'0 0.0
2016-Jul-31 10:33N 31°44' E 121°03'0 0.0
2016-Jul-31 09:09N 31°44' E 121°03'0 0.0
2016-Jul-31 08:33N 31°44' E 121°03'0 0.0
2016-Jul-31 07:33N 31°44' E 121°03'0 0.0
2016-Jul-31 03:33N 31°44' E 121°03'7 7.2
2016-Jul-31 02:33N 31°41' E 121°10'1010.4
2016-Jul-31 01:33N 31°34' E 121°19'10 9.9
2016-Jul-31 00:33N 31°28' E 121°28'13 6.3
2016-Jul-30 22:33N 31°21' E 121°40'  
Track history (hours):
 
Tides and Currents Weather Stations Pressure Air Temp Water Temp Dewpoint Dewpoint Depression Visibility Wind Speed Wind Dir Waves Ship Positions

Hai Yang Shi You 708

Last reported at 2016-Aug-04 10:33 UTC. Time now 2016-Aug-30 10:52 UTC.
Position N 24°26' E 118°53'.
Warning: this ship's position is 26 days out of date.

Length 105 m; draft 7.3 m.

Type: Other ship. MMSI: 413303010.

Date/timePositionNaut miles runAvg speedWind from/ knotsBaromVisibWave heightAir tempDewpointWater temp
2016-Aug-04 10:33N 24°26' E 118°53'9 9.3
2016-Aug-04 09:33N 24°32' E 119°01'13 9.5
2016-Aug-04 08:12N 24°41' E 119°11'6 9.8
2016-Aug-04 07:33N 24°46' E 119°16'10 9.5
2016-Aug-04 06:33N 24°51' E 119°24'34510.1
2016-Aug-02 20:27N 29°52' E 122°34'1112.1
2016-Aug-02 19:33N 30°03' E 122°37'3510.9
2016-Aug-02 16:19N 30°38' E 122°38'9 9.1
2016-Aug-02 15:21N 30°47' E 122°34'59 8.7
2016-Aug-02 08:33N 31°21' E 121°38'1211.9
2016-Aug-02 07:33N 31°28' E 121°27'1111.1
2016-Aug-02 06:34N 31°36' E 121°17'15 7.2
2016-Aug-02 04:27N 31°44' E 121°03'0 0.0
2016-Aug-01 09:27N 31°44' E 121°03'0 0.0
2016-Aug-01 04:33N 31°44' E 121°03'0 0.0
2016-Jul-31 11:27N 31°44' E 121°03'0 0.0
2016-Jul-31 10:33N 31°44' E 121°03'0 0.0
2016-Jul-31 09:09N 31°44' E 121°03'0 0.0
2016-Jul-31 08:33N 31°44' E 121°03'0 0.0
2016-Jul-31 07:33N 31°44' E 121°03'0 0.0
2016-Jul-31 03:33N 31°44' E 121°03'7 7.2
2016-Jul-31 02:33N 31°41' E 121°10'1010.4
2016-Jul-31 01:33N 31°34' E 121°19'10 9.9
2016-Jul-31 00:33N 31°28' E 121°28'13 6.3
2016-Jul-30 22:33N 31°21' E 121°40'  

Dump ship's entire track history